• Join FlightAware (Why Join?)
  • Login
  • US Flag 
07:38PM EDT


 

Airport Tracker/Info


-or-


 

Live Flight TrackerFlight Track Log ✈ JBU807 ✈ 02-Jun-2013 ✈ KBOS - TIST / STT

Flight Track Log - Related Links

Times and Time Zones

All times are in EDT time to prevent confusion due to time zone crossing. See the JBU807 flight status page for this flight to view local times or setup timezone preferences in your user account.

Time Position Orientation Groundspeed Altitude Reporting Facility
EDT Latitude Longitude Course Direction KTS MPH feet Rate Location/Type
09:15AM 42.3500 -71.0167 151° Southeast 169 194 800  Level KA90
09:15AM 42.3333 -71.0000 144° Southeast 170 196 1,900 1,680 Climbing KA90
09:17AM 42.3167 -70.9000 103° East 279 321 3,700 2,100 Climbing KA90
09:17AM 42.3319 -70.7858 80° East 327 376 6,300 2,880 Climbing Boston Center
09:18AM 42.2291 -70.6445 152° Southeast  Level FlightAware Approximate
09:18AM 42.2994 -70.6969 116° Southeast 294 338 9,200  Level Boston Center
09:19AM 42.1220 -70.5702 154° Southeast  Level FlightAware Approximate
09:19AM 42.2278 -70.6372 148° Southeast 277 319 10,900  Level Boston Center
09:20AM 42.0142 -70.4981 151° Southeast  Level FlightAware Approximate
09:20AM 42.1472 -70.5611 145° Southeast 309 356 12,500  Level Boston Center
09:21AM 42.0664 -70.4714 140° Southeast 350 403 14,700 2,160 Climbing Boston Center
09:22AM 41.9856 -70.3761 139° Southeast 374 430 16,900 1,920 Climbing Boston Center
09:23AM 41.9069 -70.2922 142° Southeast 398 458 18,600 1,680 Climbing Boston Center
09:24AM 41.8131 -70.1811 139° Southeast 403 464 20,300 1,500 Climbing Boston Center
09:25AM 41.7278 -70.0867 140° Southeast 423 487 21,600 1,320 Climbing Boston Center
09:26AM 41.6400 -69.9844 139° Southeast 428 493 23,000 1,320 Climbing Boston Center
09:27AM 41.5419 -69.8800 141° Southeast 439 505 24,300 1,200 Climbing Boston Center
09:28AM 41.4519 -69.7756 139° Southeast 439 505 25,500 1,140 Climbing Boston Center
09:29AM 41.3578 -69.6689 140° Southeast 439 505 26,600 1,140 Climbing Boston Center
09:30AM 41.2592 -69.5600 140° Southeast 444 511 27,800 1,140 Climbing Boston Center
09:32AM 41.0839 -69.3714 141° Southeast 456 525 29,700 1,140 Climbing New York Center
09:33AM 40.9869 -69.2633 140° Southeast 456 525 31,000 1,200 Climbing New York Center
09:34AM 40.8897 -69.1556 140° Southeast 456 525 32,100 900 Climbing New York Center
09:35AM 40.7925 -69.0536 142° Southeast 451 519 32,900 1,020 Climbing New York Center
09:36AM 40.6953 -68.9464 140° Southeast 451 519 34,200 960 Climbing New York Center
09:37AM 40.6019 -68.8422 140° Southeast 451 519 34,900 360 Climbing New York Center
09:38AM 40.5086 -68.7383 140° Southeast 451 519 35,000  Climbing New York Center
09:39AM 40.4111 -68.6458 144° Southeast 446 513 35,000 480 Level New York Center
09:40AM 40.3178 -68.5425 140° Southeast 446 513 36,000 900 Climbing New York Center
09:41AM 40.2219 -68.4447 142° Southeast 446 513 36,900 480 Climbing New York Center
09:42AM 40.1347 -68.3417 138° Southeast 441 507 37,000  Climbing New York Center
09:43AM 40.0389 -68.2475 143° Southeast 435 501 37,000  Level New York Center
09:44AM 39.9350 -68.1672 149° Southeast 435 501 37,000 -60 Level New York Center
09:45AM 39.8253 -68.1061 157° South 435 501 36,900 -60 Descending New York Center
09:46AM 39.7114 -68.0428 157° South 435 501 36,900  Level New York Center
09:47AM 39.5997 -67.9850 158° South 440 506 37,000  Climbing New York Center
09:48AM 39.4897 -67.9167 154° Southeast 440 506 37,000  Level New York Center
09:49AM 39.3778 -67.8567 157° South 440 506 37,000  Level New York Center
09:50AM 39.2636 -67.7942 157° South 440 506 37,000  Level New York Center
09:51AM 39.1497 -67.7372 159° South 440 506 37,000  Level New York Center
09:52AM 39.0394 -67.6694 154° Southeast 440 506 37,000 -60 Level New York Center
09:53AM 38.9275 -67.6103 158° South 440 506 36,900  Descending New York Center
09:54AM 38.8133 -67.5592 161° South 440 506 37,000  Climbing New York Center
09:56AM 38.8833 -67.5667 170° South 443 510 37,000  Level New York Oceanic (ODAPS)
10:02AM 37.9102 -67.3396 170° South 443 510 37,000  Level FlightAware Transoceanic
10:03AM 37.7886 -67.3116 170° South 443 510 37,000  Level FlightAware Transoceanic
10:04AM 37.6669 -67.2838 170° South 443 510 37,000  Level FlightAware Transoceanic
10:05AM 37.5452 -67.2560 170° South 443 510 37,000  Level FlightAware Transoceanic
10:06AM 37.4235 -67.2283 170° South 443 510 37,000  Level FlightAware Transoceanic
10:07AM 37.3018 -67.2007 170° South 443 510 37,000  Level FlightAware Transoceanic
10:08AM 37.1801 -67.1732 170° South 443 510 37,000  Level FlightAware Transoceanic
10:09AM 37.0584 -67.1458 170° South 443 510 37,000  Level FlightAware Transoceanic
10:10AM 36.9367 -67.1185 170° South 443 510 37,000  Level FlightAware Transoceanic
10:11AM 36.8150 -67.0912 170° South 443 510 37,000  Level FlightAware Transoceanic
10:12AM 36.6933 -67.0641 170° South 443 510 37,000  Level FlightAware Transoceanic
10:13AM 36.5715 -67.0370 170° South 443 510 37,000  Level FlightAware Transoceanic
10:14AM 36.4498 -67.0100 170° South 443 510 37,000  Level FlightAware Transoceanic
10:15AM 36.3280 -66.9831 170° South 443 510 37,000  Level FlightAware Transoceanic
10:16AM 36.2063 -66.9563 170° South 443 510 37,000  Level FlightAware Transoceanic
10:17AM 36.0845 -66.9296 170° South 443 510 37,000  Level FlightAware Transoceanic
10:18AM 35.9628 -66.9029 170° South 443 510 37,000  Level FlightAware Transoceanic
10:19AM 35.8410 -66.8763 170° South 443 510 37,000  Level FlightAware Transoceanic
10:20AM 35.7192 -66.8499 170° South 443 510 37,000  Level FlightAware Transoceanic
10:21AM 35.5975 -66.8234 170° South 443 510 37,000  Level FlightAware Transoceanic
10:22AM 35.4757 -66.7971 170° South 443 510 37,000  Level FlightAware Transoceanic
10:23AM 35.3539 -66.7709 170° South 443 510 37,000  Level FlightAware Transoceanic
10:24AM 35.2321 -66.7447 170° South 443 510 37,000  Level FlightAware Transoceanic
10:25AM 35.1103 -66.7186 170° South 443 510 37,000  Level FlightAware Transoceanic
10:26AM 34.9885 -66.6926 170° South 443 510 37,000  Level FlightAware Transoceanic
10:27AM 34.8667 -66.6667 169° South 443 510 37,000  Level FlightAware Transoceanic
10:28AM 34.7483 -66.6378 169° South 443 510 37,000  Level FlightAware Transoceanic
10:29AM 34.6300 -66.6090 169° South 443 510 37,000  Level FlightAware Transoceanic
10:29AM 34.8667 -66.6667 169° South 433 498 37,000  Level New York Oceanic (ODAPS)
10:30AM 34.5116 -66.5804 169° South 443 510 37,000  Level FlightAware Transoceanic
10:31AM 34.3933 -66.5518 169° South 443 510 37,000  Level FlightAware Transoceanic
10:32AM 34.2749 -66.5232 169° South 443 510 37,000  Level FlightAware Transoceanic
10:33AM 34.1565 -66.4948 169° South 443 510 37,000  Level FlightAware Transoceanic
10:34AM 34.0381 -66.4664 169° South 443 510 37,000  Level FlightAware Transoceanic
10:35AM 34.0381 -66.4664 169° South 433 498 37,000  Level FlightAware Transoceanic
10:36AM 33.9198 -66.4381 169° South 433 498 37,000  Level FlightAware Transoceanic
10:37AM 33.8014 -66.4099 169° South 433 498 37,000  Level FlightAware Transoceanic
10:38AM 33.6830 -66.3818 169° South 433 498 37,000  Level FlightAware Transoceanic
10:39AM 33.5646 -66.3538 169° South 433 498 37,000  Level FlightAware Transoceanic
10:40AM 33.4461 -66.3258 169° South 433 498 37,000  Level FlightAware Transoceanic
10:41AM 33.3277 -66.2979 169° South 433 498 37,000  Level FlightAware Transoceanic
10:42AM 33.2093 -66.2701 169° South 433 498 37,000  Level FlightAware Transoceanic
10:43AM 33.0909 -66.2423 169° South 433 498 37,000  Level FlightAware Transoceanic
10:44AM 32.9724 -66.2146 169° South 433 498 37,000  Level FlightAware Transoceanic
10:45AM 32.8540 -66.1870 169° South 433 498 37,000  Level FlightAware Transoceanic
10:46AM 32.7355 -66.1595 169° South 433 498 37,000  Level FlightAware Transoceanic
10:47AM 32.6171 -66.1321 169° South 433 498 37,000  Level FlightAware Transoceanic
10:48AM 32.4986 -66.1047 169° South 433 498 37,000  Level FlightAware Transoceanic
10:49AM 32.3801 -66.0774 169° South 433 498 37,000  Level FlightAware Transoceanic
10:50AM 32.2617 -66.0501 169° South 433 498 37,000  Level FlightAware Transoceanic
10:51AM 32.1432 -66.0230 169° South 433 498 37,000  Level FlightAware Transoceanic
10:52AM 32.0247 -65.9959 169° South 433 498 37,000  Level FlightAware Transoceanic
10:53AM 31.9062 -65.9689 169° South 433 498 37,000  Level FlightAware Transoceanic
10:54AM 31.7877 -65.9419 169° South 433 498 37,000  Level FlightAware Transoceanic
10:55AM 31.6692 -65.9150 169° South 433 498 37,000  Level FlightAware Transoceanic
10:56AM 31.5507 -65.8882 169° South 433 498 37,000  Level FlightAware Transoceanic
10:57AM 31.4322 -65.8615 169° South 433 498 37,000  Level FlightAware Transoceanic
10:58AM 31.3137 -65.8348 169° South 433 498 37,000  Level FlightAware Transoceanic
10:59AM 31.1952 -65.8082 169° South 433 498 37,000  Level FlightAware Transoceanic
11:00AM 31.0766 -65.7816 169° South 433 498 37,000  Level FlightAware Transoceanic
11:01AM 30.9581 -65.7551 169° South 433 498 37,000  Level FlightAware Transoceanic
11:02AM 30.8396 -65.7287 169° South 433 498 37,000  Level FlightAware Transoceanic
11:03AM 30.7210 -65.7024 169° South 433 498 37,000  Level FlightAware Transoceanic
11:04AM 30.6025 -65.6761 169° South 433 498 37,000  Level FlightAware Transoceanic
11:05AM 30.4839 -65.6498 169° South 433 498 37,000  Level FlightAware Transoceanic
11:06AM 30.3653 -65.6237 169° South 433 498 37,000  Level FlightAware Transoceanic
11:07AM 30.2468 -65.5976 169° South 433 498 37,000  Level FlightAware Transoceanic
11:08AM 30.1282 -65.5716 169° South 433 498 37,000  Level FlightAware Transoceanic
11:09AM 30.0096 -65.5456 169° South 433 498 37,000  Level FlightAware Transoceanic
11:10AM 29.8911 -65.5197 169° South 433 498 37,000  Level FlightAware Transoceanic
11:11AM 29.7725 -65.4938 169° South 433 498 37,000  Level FlightAware Transoceanic
11:12AM 29.6539 -65.4680 169° South 433 498 37,000  Level FlightAware Transoceanic
11:13AM 29.5353 -65.4423 169° South 433 498 37,000  Level FlightAware Transoceanic
11:14AM 29.4167 -65.4167 184° South 433 498 37,000  Level FlightAware Transoceanic
11:14AM 29.4167 -65.4167 184° South 424 488 37,000  Level New York Oceanic (ODAPS)
11:15AM 29.2921 -65.4273 184° South 433 498 37,000  Level FlightAware Transoceanic
11:16AM 29.1676 -65.4378 184° South 433 498 37,000  Level FlightAware Transoceanic
11:17AM 29.0431 -65.4484 184° South 433 498 37,000  Level FlightAware Transoceanic
11:18AM 28.9186 -65.4589 184° South 433 498 37,000  Level FlightAware Transoceanic
11:19AM 28.7940 -65.4694 184° South 433 498 37,000  Level FlightAware Transoceanic
11:20AM 28.5909 -65.4865 184° South 424 488 37,000  Level FlightAware Transoceanic
11:21AM 28.4729 -65.4964 184° South 424 488 37,000  Level FlightAware Transoceanic
11:22AM 28.3549 -65.5062 184° South 424 488 37,000  Level FlightAware Transoceanic
11:23AM 28.2369 -65.5161 184° South 424 488 37,000  Level FlightAware Transoceanic
11:24AM 28.1190 -65.5259 184° South 424 488 37,000  Level FlightAware Transoceanic
11:25AM 28.0010 -65.5357 184° South 424 488 37,000  Level FlightAware Transoceanic
11:26AM 27.8830 -65.5455 184° South 424 488 37,000  Level FlightAware Transoceanic
11:27AM 27.7650 -65.5552 184° South 424 488 37,000  Level FlightAware Transoceanic
11:28AM 27.6470 -65.5650 184° South 424 488 37,000  Level FlightAware Transoceanic
11:29AM 27.5291 -65.5747 184° South 424 488 37,000  Level FlightAware Transoceanic
11:30AM 27.4111 -65.5844 184° South 424 488 37,000  Level FlightAware Transoceanic
11:31AM 27.2931 -65.5940 184° South 424 488 37,000  Level FlightAware Transoceanic
11:32AM 27.1751 -65.6037 184° South 424 488 37,000  Level FlightAware Transoceanic
11:33AM 27.0571 -65.6133 184° South 424 488 37,000  Level FlightAware Transoceanic
11:34AM 26.9391 -65.6229 184° South 424 488 37,000  Level FlightAware Transoceanic
11:35AM 26.8212 -65.6325 184° South 424 488 37,000  Level FlightAware Transoceanic
11:36AM 26.7032 -65.6421 184° South 424 488 37,000  Level FlightAware Transoceanic
11:37AM 26.5852 -65.6516 184° South 424 488 37,000  Level FlightAware Transoceanic
11:38AM 26.4672 -65.6612 184° South 424 488 37,000  Level FlightAware Transoceanic
11:39AM 26.3492 -65.6707 184° South 424 488 37,000  Level FlightAware Transoceanic
11:40AM 26.2312 -65.6802 184° South 424 488 37,000  Level FlightAware Transoceanic
11:41AM 26.1133 -65.6896 184° South 424 488 37,000  Level FlightAware Transoceanic
11:42AM 25.9953 -65.6991 184° South 424 488 37,000  Level FlightAware Transoceanic
11:43AM 25.8773 -65.7085 184° South 424 488 37,000  Level FlightAware Transoceanic
11:44AM 25.7593 -65.7179 184° South 424 488 37,000  Level FlightAware Transoceanic
11:45AM 25.6413 -65.7273 184° South 424 488 37,000  Level FlightAware Transoceanic
11:46AM 25.5233 -65.7367 184° South 424 488 37,000  Level FlightAware Transoceanic
11:47AM 25.4053 -65.7461 184° South 424 488 37,000  Level FlightAware Transoceanic
11:48AM 25.2873 -65.7554 184° South 424 488 37,000  Level FlightAware Transoceanic
11:49AM 25.1693 -65.7647 184° South 424 488 37,000  Level FlightAware Transoceanic
11:50AM 25.0513 -65.7740 184° South 424 488 37,000  Level FlightAware Transoceanic
11:50AM 24.9333 -65.7833 171° South 434 499 37,000  Level New York Oceanic (ODAPS)
11:51AM 24.9333 -65.7833 171° South 424 488 37,000  Level FlightAware Transoceanic
11:52AM 24.8030 -65.7604 171° South 424 488 37,000  Level FlightAware Transoceanic
11:53AM 24.6728 -65.7375 171° South 424 488 37,000  Level FlightAware Transoceanic
11:54AM 24.5425 -65.7146 171° South 424 488 37,000  Level FlightAware Transoceanic
11:55AM 24.4122 -65.6918 171° South 424 488 37,000  Level FlightAware Transoceanic
11:56AM 24.2167 -65.6576 171° South 434 499 37,000  Level FlightAware Transoceanic
11:57AM 24.0973 -65.6368 171° South 434 499 37,000  Level FlightAware Transoceanic
11:58AM 23.9778 -65.6160 171° South 434 499 37,000  Level FlightAware Transoceanic
11:59AM 23.8584 -65.5953 171° South 434 499 37,000  Level FlightAware Transoceanic
12:00PM 23.7389 -65.5746 171° South 434 499 37,000  Level FlightAware Transoceanic
12:01PM 23.6195 -65.5539 171° South 434 499 37,000  Level FlightAware Transoceanic
12:02PM 23.5000 -65.5333 165° South 434 499 37,000  Level FlightAware Transoceanic
12:02PM 23.5000 -65.5333 165° South 473 544 37,000  Level New York Oceanic (ODAPS)
12:03PM 23.3746 -65.4977 165° South 434 499 37,000  Level FlightAware Transoceanic
12:04PM 23.2493 -65.4621 165° South 434 499 37,000  Level FlightAware Transoceanic
12:05PM 23.1239 -65.4265 165° South 434 499 37,000  Level FlightAware Transoceanic
12:06PM 22.9985 -65.3911 165° South 434 499 37,000  Level FlightAware Transoceanic
12:07PM 22.8731 -65.3557 165° South 434 499 37,000  Level FlightAware Transoceanic
12:08PM 22.6222 -65.2850 165° South 473 544 37,000  Level FlightAware Transoceanic
12:09PM 22.4968 -65.2498 165° South 473 544 37,000  Level FlightAware Transoceanic
12:10PM 22.3714 -65.2147 165° South 473 544 37,000  Level FlightAware Transoceanic
12:11PM 22.2460 -65.1796 166° South 473 544 37,000  Level FlightAware Transoceanic
12:12PM 22.1205 -65.1446 166° South 473 544 37,000 -1,560 Level FlightAware Transoceanic
12:12PM 22.1167 -65.1333 166° South 480 552 35,000  Descending San Juan Center
12:13PM 21.9951 -65.1096 166° South 473 544 37,000  Climbing FlightAware Transoceanic
12:13PM 21.9833 -65.1000 167° South 480 552 35,000  Descending San Juan Center
12:14PM 21.8696 -65.0748 166° South 473 544 37,000  Climbing FlightAware Transoceanic
12:14PM 21.8667 -65.0667 165° South 490 564 35,000  Descending San Juan Center
12:15PM 21.7441 -65.0399 166° South 473 544 37,000  Climbing FlightAware Transoceanic
12:15PM 21.7333 -65.0667 180° South 480 552 35,000  Descending San Juan Center
12:16PM 21.6186 -65.0051 166° South 473 544 37,000 -1,020 Climbing FlightAware Transoceanic
12:16PM 21.6000 -65.0833 187° South 470 541 34,000  Descending San Juan Center
12:17PM 21.4932 -64.9704 166° South 473 544 37,000 -1,620 Climbing FlightAware Transoceanic
12:17PM 21.4667 -65.1000 187° South 480 552 32,400 -4,560 Descending San Juan Center
12:18PM 21.3333 -65.1167 187° South 470 541 31,000 -720 Descending San Juan Center
12:19PM 21.2000 -65.1333 187° South 470 541 31,000  Level San Juan Center
12:20PM 21.0667 -65.1333 180° South 470 541 31,000  Level San Juan Center
12:21PM 20.9333 -65.1500 187° South 470 541 31,000  Level San Juan Center
12:22PM 20.8167 -65.1667 188° South 470 541 31,000  Level San Juan Center
12:23PM 20.6833 -65.1667 180° South 460 529 31,000  Level San Juan Center
12:24PM 20.5500 -65.1833 187° South 460 529 31,000  Level San Juan Center
12:25PM 20.4167 -65.2000 187° South 470 541 31,000 -540 Level San Juan Center
12:26PM 20.2833 -65.2167 187° South 470 541 30,000 -1,320 Descending San Juan Center
12:27PM 20.1500 -65.2167 180° South 470 541 28,400 -1,380 Descending San Juan Center
12:28PM 20.0333 -65.2333 188° South 450 518 27,300 -1,200 Descending San Juan Center
12:29PM 19.9167 -65.2333 180° South 420 483 26,100 -1,260 Descending San Juan Center
12:30PM 19.8000 -65.2500 188° South 420 483 24,800 -1,380 Descending San Juan Center
12:31PM 19.6833 -65.2833 195° South 410 472 23,400 -1,260 Descending San Juan Center
12:32PM 19.5833 -65.3333 205° Southwest 400 460 22,300 -1,260 Descending San Juan Center
12:33PM 19.4833 -65.3833 205° Southwest 390 449 20,900 -1,320 Descending San Juan Center
12:34PM 19.3833 -65.4167 197° South 380 437 19,700 -1,260 Descending San Juan Center
12:35PM 19.2833 -65.4333 189° South 360 414 18,400 -1,200 Descending San Juan Center
12:36PM 19.1833 -65.4167 171° South 370 426 17,300 -1,500 Descending San Juan Center
12:37PM 19.0667 -65.4000 172° South 340 391 15,400 -1,740 Descending San Juan Center
12:38PM 18.9833 -65.4000 180° South 340 391 13,800 -1,920 Descending San Juan Center
12:39PM 18.8833 -65.3833 171° South 340 391 11,600 -1,740 Descending San Juan Center
12:40PM 18.8000 -65.3667 169° South 330 380 10,300 -1,200 Descending San Juan Center
12:41PM 18.7167 -65.3667 180° South 310 357 9,200 -1,380 Descending San Juan Center
12:42PM 18.6333 -65.3500 169° South 280 322 7,600 -1,560 Descending San Juan Center
12:43PM 18.5500 -65.3333 169° South 270 311 6,100 -1,440 Descending San Juan Center
12:44PM 18.4833 -65.3167 167° South 270 311 4,700 -1,440 Descending San Juan Center
12:45PM 18.4000 -65.3000 169° South 260 299 3,300 -960 Descending San Juan Center
12:46PM 18.3667 -65.2667 136° Southeast 230 265 2,800 -600 Descending San Juan Center
12:47PM 18.3333 -65.2167 125° Southeast 190 219 2,200 -300 Descending San Juan Center
12:48PM 18.3167 -65.1667 109° East 180 207 2,200  Level San Juan Center
12:49PM 18.3167 -65.1000 90° East 180 207 2,200 -300 Level San Juan Center
12:50PM 18.3167 -65.0667 90° East 130 150 1,600 -660 Descending San Juan Center
12:51PM 18.3167 -65.0333 90° East 140 161 900 -660 Descending San Juan Center
12:52PM 18.3333 -64.9833 71° East 130 150 300 -600 Descending San Juan Center